Time;durP1;ratioP1;P1;durP2;ratioP2;P2;SDS_P1;SDS_P2;PMS_P1;PMS_P2;Temp;Humidity;BMP_temperature;BMP_pressure;BME280_temperature;BME280_humidity;BME280_pressure;Samples;Min_cycle;Max_cycle;Signal;HPM_P1;HPM_P2
2022/04/13 00:01:20;;;;;;;;;;;9.40;99.90;;;8.48;54.49;95357.22;10494628;28;1983;-78
2022/04/13 00:06:24;;;;;;;;;;;9.50;99.90;;;8.42;53.40;95350.25;10531366;28;1890;-75
2022/04/13 00:11:28;;;;;;;;;;;9.50;99.90;;;8.34;53.95;95354.25;10515453;28;1475;-74
2022/04/13 00:16:31;;;;;;;;;;;9.40;99.90;;;8.18;54.38;95354.53;10484986;28;1918;-75
2022/04/13 00:21:34;;;;;;;;;;;9.30;99.90;;;8.19;54.46;95354.25;10478165;28;1833;-75
2022/04/13 00:26:37;;;;;;;;;;;9.20;99.90;;;8.01;54.96;95366.28;10479394;28;1965;-76
2022/04/13 00:31:41;;;;;;;;;;;9.10;99.90;;;8.01;55.67;95360.94;10483754;28;2283;-75
2022/04/13 00:36:44;;;;;;;;;;;9.10;99.90;;;7.90;56.56;95354.00;10485855;28;1835;-76
2022/04/13 00:41:47;;;;;;;;;;;9.00;99.90;;;7.88;56.94;95356.09;10495732;28;2093;-76
2022/04/13 00:46:51;;;;;;;;;;;8.90;99.90;;;7.91;55.88;95360.94;10484753;28;2265;-76
2022/04/13 00:51:54;;;;;;;;;;;8.90;99.90;;;7.84;57.05;95363.09;10483486;28;1912;-75
2022/04/13 00:56:57;;;;;;;;;;;8.90;99.90;;;7.74;57.22;95360.38;10476893;28;1798;-77
2022/04/13 01:02:00;;;;;;;;;;;8.80;99.90;;;7.64;57.39;95365.72;10479325;28;1874;-76
2022/04/13 01:07:04;;;;;;;;;;;8.90;99.90;;;7.52;58.48;95364.09;10489597;28;1985;-77
2022/04/13 01:12:07;;;;;;;;;;;8.70;99.90;;;7.53;59.07;95368.38;10480683;28;1861;-75
2022/04/13 01:17:13;;;;;;;;;;;8.60;99.90;;;7.47;59.53;95377.44;10487335;28;2001;-75
2022/04/13 01:22:16;;;;;;;;;;;8.50;99.90;;;7.46;59.88;95378.53;10486493;28;1928;-77
2022/04/13 01:27:20;;;;;;;;;;;8.60;99.90;;;7.37;60.27;95382.75;10479490;28;1945;-77
2022/04/13 01:32:24;;;;;;;;;;;8.40;99.90;;;7.30;61.14;95377.66;10484272;28;2017;-77
2022/04/13 01:37:31;;;;;;;;;;;8.50;99.90;;;7.30;61.48;95392.88;10497908;28;1890;-76
2022/04/13 01:42:34;;;;;;;;;;;8.40;99.90;;;7.32;61.88;95388.09;10491355;28;1892;-77
2022/04/13 01:47:37;;;;;;;;;;;8.40;99.90;;;7.27;61.88;95388.09;10473256;28;1926;-77
2022/04/13 01:52:41;;;;;;;;;;;8.30;99.90;;;7.16;64.17;95386.44;10484086;28;2034;-76
2022/04/13 01:57:44;;;;;;;;;;;8.30;99.90;;;7.09;64.71;95385.88;10482524;28;2193;-77
2022/04/13 02:02:48;;;;;;;;;;;8.20;99.90;;;7.12;64.50;95388.81;10488591;28;1872;-76
2022/04/13 02:07:51;;;;;;;;;;;8.20;99.90;;;7.08;64.92;95390.41;10475896;28;1994;-75
2022/04/13 02:12:54;;;;;;;;;;;8.10;99.90;;;7.08;65.26;95378.91;10486940;28;1784;-76
2022/04/13 02:17:58;;;;;;;;;;;8.20;99.90;;;7.07;65.45;95385.34;10490854;28;1819;-76
2022/04/13 02:23:02;;;;;;;;;;;8.20;99.90;;;7.17;64.56;95377.34;10483993;28;1852;-76
2022/04/13 02:28:06;;;;;;;;;;;8.10;99.90;;;7.10;65.08;95387.47;10488141;28;1910;-77
2022/04/13 02:33:09;;;;;;;;;;;8.20;99.90;;;7.05;65.35;95370.34;10502507;28;1867;-77
2022/04/13 02:38:12;;;;;;;;;;;8.10;99.90;;;6.92;66.01;95376.16;10484217;28;1860;-75
2022/04/13 02:43:14;;;;;;;;;;;8.00;99.90;;;6.77;66.47;95376.91;10478126;28;2006;-75
2022/04/13 02:48:17;;;;;;;;;;;8.00;99.90;;;6.81;66.62;95374.53;10482863;28;1917;-76
2022/04/13 02:53:20;;;;;;;;;;;7.90;99.90;;;6.74;67.49;95381.94;10476793;28;1888;-76
2022/04/13 02:58:23;;;;;;;;;;;7.90;99.90;;;6.69;67.80;95376.59;10483422;28;1832;-75
2022/04/13 03:03:27;;;;;;;;;;;7.80;99.90;;;6.68;68.07;95374.94;10484233;28;1848;-76
2022/04/13 03:08:31;;;;;;;;;;;7.80;99.90;;;6.55;69.46;95378.09;10483800;28;1962;-77
2022/04/13 03:13:34;;;;;;;;;;;7.60;99.90;;;6.55;70.08;95380.75;10475716;28;1871;-77
2022/04/13 03:18:38;;;;;;;;;;;7.60;99.90;;;6.50;70.80;95387.69;10485872;28;1867;-76
2022/04/13 03:23:42;;;;;;;;;;;7.60;99.90;;;6.43;71.84;95378.28;10493216;28;1837;-75
2022/04/13 03:28:46;;;;;;;;;;;7.40;99.90;;;6.38;72.19;95372.91;10488984;28;1901;-76
2022/04/13 03:33:49;;;;;;;;;;;7.50;99.90;;;6.34;73.11;95377.16;10492773;28;1974;-75
2022/04/13 03:38:52;;;;;;;;;;;7.40;99.90;;;6.26;73.77;95378.44;10486950;28;1935;-77
2022/04/13 03:43:55;;;;;;;;;;;7.30;99.90;;;6.30;74.26;95390.22;10487916;28;1923;-75
2022/04/13 03:48:58;;;;;;;;;;;7.50;99.90;;;6.29;74.75;95383.25;10486874;28;1979;-75
2022/04/13 03:54:02;;;;;;;;;;;7.50;99.90;;;6.29;74.86;95393.91;10495299;28;1887;-75
2022/04/13 03:59:10;;;;;;;;;;;7.30;99.90;;;6.23;75.56;95398.44;10478319;28;1821;-76
2022/04/13 04:04:13;;;;;;;;;;;7.30;99.90;;;6.18;75.60;95398.41;10476945;28;1946;-77
2022/04/13 04:09:17;;;;;;;;;;;7.10;99.90;;;6.12;76.52;95402.09;10479116;28;1986;-76
2022/04/13 04:14:20;;;;;;;;;;;7.20;99.90;;;6.14;77.04;95404.50;10475498;28;1863;-76
2022/04/13 04:19:24;;;;;;;;;;;7.20;99.90;;;6.21;76.75;95413.09;10481113;28;1590;-76
2022/04/13 04:24:27;;;;;;;;;;;7.10;99.90;;;6.25;76.78;95416.88;10478174;28;1938;-76
2022/04/13 04:29:30;;;;;;;;;;;7.20;99.90;;;6.30;76.14;95418.75;10472189;28;1906;-76
2022/04/13 04:34:34;;;;;;;;;;;7.20;99.90;;;6.29;76.68;95417.16;10483742;28;1757;-76
2022/04/13 04:39:37;;;;;;;;;;;7.20;99.90;;;6.17;77.02;95425.31;10478351;28;1823;-74
2022/04/13 04:44:40;;;;;;;;;;;7.20;99.90;;;6.21;77.11;95421.09;10474846;28;1892;-76
2022/04/13 04:49:43;;;;;;;;;;;7.20;99.90;;;6.27;76.99;95427.28;10469615;28;1918;-75
2022/04/13 04:54:47;;;;;;;;;;;7.10;99.90;;;6.30;77.38;95438.28;10474905;28;1896;-76
2022/04/13 04:59:49;;;;;;;;;;;7.10;99.90;;;6.41;77.58;95429.25;10477959;28;1804;-76
2022/04/13 05:04:53;;;;;;;;;;;7.30;99.90;;;6.66;76.69;95425.16;10475591;28;1969;-77
2022/04/13 05:09:55;;;;;;;;;;;7.40;99.90;;;6.97;76.25;95426.97;10475151;28;1736;-75
2022/04/13 05:14:58;;;;;;;;;;;7.70;99.90;;;7.32;75.66;95428.22;10487044;28;1875;-76
2022/04/13 05:20:01;;;;;;;;;;;7.90;99.90;;;7.75;75.59;95434.22;10477023;28;2360;-76
2022/04/13 05:25:04;;;;;;;;;;;8.30;99.90;;;8.07;74.68;95429.47;10475850;28;1906;-76
2022/04/13 05:30:07;;;;;;;;;;;8.70;99.90;;;8.55;72.75;95427.38;10479226;28;1828;-76
2022/04/13 05:35:10;;;;;;;;;;;8.90;99.90;;;8.78;71.66;95423.34;10479898;28;1813;-75
2022/04/13 05:40:13;;;;;;;;;;;9.30;99.90;;;9.08;70.85;95435.88;10486098;28;2016;-78
2022/04/13 05:45:17;;;;;;;;;;;9.50;99.90;;;9.39;69.79;95433.91;10481983;28;1988;-77
2022/04/13 05:50:19;;;;;;;;;;;10.00;99.90;;;9.74;68.31;95440.22;10483916;28;1892;-77
2022/04/13 05:55:22;;;;;;;;;;;10.00;99.90;;;9.87;65.82;95444.19;10487429;28;1613;-75
2022/04/13 06:00:25;;;;;;;;;;;10.40;99.90;;;9.61;66.92;95455.03;10488692;28;1853;-76
2022/04/13 06:05:28;;;;;;;;;;;10.40;99.90;;;9.44;68.16;95463.41;10486902;28;1977;-76
2022/04/13 06:10:31;;;;;;;;;;;10.30;99.90;;;9.26;68.65;95465.88;10484564;28;1903;-77
2022/04/13 06:15:34;;;;;;;;;;;10.20;99.90;;;9.67;66.92;95474.56;10529337;28;1407;-75
2022/04/13 06:20:37;;;;;;;;;;;10.40;99.90;;;9.67;67.76;95478.09;10506446;28;1869;-77
2022/04/13 06:25:41;;;;;;;;;;;10.40;99.90;;;10.12;65.70;95478.94;10478653;28;2380;-75
2022/04/13 06:30:45;;;;;;;;;;;10.70;99.90;;;10.67;63.69;95478.84;10480611;28;1867;-76
2022/04/13 06:35:48;;;;;;;;;;;10.90;99.90;;;10.70;63.06;95473.72;10474592;28;1765;-76
2022/04/13 06:40:52;;;;;;;;;;;11.20;99.90;;;10.86;62.80;95477.09;10473340;28;2017;-76
2022/04/13 06:45:55;;;;;;;;;;;11.40;99.90;;;11.47;60.43;95475.69;10482904;28;1879;-75
2022/04/13 06:51:25;;;;;;;;;;;11.80;99.90;;;11.48;59.80;95477.28;10497005;28;1753;-75
2022/04/13 07:01:57;;;;;;;;;;;12.30;99.90;;;12.48;57.83;95476.31;10468723;28;1923;-74
2022/04/13 07:07:00;;;;;;;;;;;12.70;99.90;;;12.38;57.68;95474.53;10477479;28;1938;-76
2022/04/13 07:12:03;;;;;;;;;;;13.00;99.90;;;12.69;57.21;95471.38;10478556;28;1940;-76
2022/04/13 07:17:06;;;;;;;;;;;13.10;99.90;;;12.91;57.00;95476.94;10475862;28;1847;-74
2022/04/13 07:22:09;;;;;;;;;;;13.30;99.90;;;13.43;56.35;95476.91;10473194;28;1895;-74
2022/04/13 07:27:16;;;;;;;;;;;13.60;99.90;;;13.46;55.83;95474.41;10485762;28;1910;-76
2022/04/13 07:32:19;;;;;;;;;;;14.00;99.90;;;13.95;54.11;95470.19;10473013;28;1858;-75
2022/04/13 07:37:22;;;;;;;;;;;14.40;99.90;;;13.98;53.12;95474.97;10482099;28;1781;-77
2022/04/13 07:42:25;;;;;;;;;;;14.80;99.90;;;14.42;52.96;95476.22;10481542;28;1949;-78
2022/04/13 07:47:28;;;;;;;;;;;14.90;99.90;;;14.74;52.07;95486.03;10479340;28;1965;-75
2022/04/13 07:52:31;;;;;;;;;;;15.20;99.90;;;14.79;51.81;95483.22;10481575;28;1804;-77
2022/04/13 07:57:34;;;;;;;;;;;15.40;99.90;;;15.14;50.44;95486.16;10480861;28;1744;-76
2022/04/13 08:02:37;;;;;;;;;;;15.80;99.90;;;14.87;51.44;95487.09;10484931;28;1879;-77
2022/04/13 08:07:40;;;;;;;;;;;15.80;99.90;;;15.61;49.67;95497.41;10487499;28;1906;-78
2022/04/13 08:12:46;;;;;;;;;;;16.00;99.90;;;15.84;48.50;95492.75;10472976;28;1891;-76
2022/04/13 08:17:49;;;;;;;;;;;16.40;99.90;;;15.61;48.95;95492.00;10470419;28;1823;-76
2022/04/13 08:22:52;;;;;;;;;;;16.40;99.90;;;15.43;49.44;95493.81;10473869;28;1871;-78
2022/04/13 08:27:55;;;;;;;;;;;16.40;99.90;;;16.24;48.09;95484.56;10470014;28;1950;-76
2022/04/13 08:32:58;;;;;;;;;;;16.70;99.90;;;16.02;48.11;95502.53;10473264;28;1784;-76
2022/04/13 08:38:01;;;;;;;;;;;16.80;99.90;;;16.76;45.88;95501.72;10474486;28;2239;-75
2022/04/13 08:43:04;;;;;;;;;;;17.10;99.90;;;17.04;45.16;95502.19;10470405;28;1956;-76
2022/04/13 08:48:08;;;;;;;;;;;17.40;99.90;;;17.03;45.17;95498.69;10466147;28;1977;-76
2022/04/13 08:53:12;;;;;;;;;;;17.60;99.90;;;17.33;44.30;95514.31;10463817;28;1970;-77
2022/04/13 08:58:15;;;;;;;;;;;17.80;99.90;;;17.08;44.48;95508.59;10470884;28;1800;-78
2022/04/13 09:03:18;;;;;;;;;;;17.80;99.90;;;17.27;43.76;95506.31;10474067;28;2065;-79
2022/04/13 09:08:22;;;;;;;;;;;17.80;99.90;;;17.56;42.67;95507.53;10485144;28;1999;-78
2022/04/13 09:13:26;;;;;;;;;;;18.00;99.90;;;17.25;44.23;95502.34;10484475;28;1826;-77
2022/04/13 09:18:29;;;;;;;;;;;18.20;99.90;;;17.69;43.29;95500.31;10483741;28;1758;-75
2022/04/13 09:23:32;;;;;;;;;;;18.20;99.90;;;18.13;42.73;95503.66;10489727;28;1832;-77
2022/04/13 09:28:37;;;;;;;;;;;18.50;99.90;;;17.67;43.93;95503.34;10487762;28;1898;-76
2022/04/13 09:33:39;;;;;;;;;;;18.70;99.90;;;17.89;43.75;95504.25;10476964;28;1891;-75
2022/04/13 09:38:42;;;;;;;;;;;18.60;99.90;;;17.90;44.29;95505.84;10476602;28;1948;-77
2022/04/13 09:43:45;;;;;;;;;;;18.60;99.90;;;18.29;42.69;95508.22;10476217;28;1884;-76
2022/04/13 09:48:48;;;;;;;;;;;18.80;99.90;;;18.11;43.73;95509.41;10477360;28;1981;-74
2022/04/13 09:53:50;;;;;;;;;;;18.90;99.90;;;18.13;43.45;95509.88;10476963;28;1780;-77
2022/04/13 09:58:53;;;;;;;;;;;18.90;99.90;;;17.94;43.22;95510.31;10481239;28;1725;-76
2022/04/13 10:03:56;;;;;;;;;;;18.90;99.60;;;18.01;43.22;95512.53;10478964;28;1881;-77
2022/04/13 10:09:00;;;;;;;;;;;18.80;99.10;;;18.21;42.59;95506.34;10479354;28;1922;-79
2022/04/13 10:14:03;;;;;;;;;;;18.90;99.10;;;18.56;43.54;95508.84;10471900;28;1827;-78
2022/04/13 10:19:06;;;;;;;;;;;19.10;99.90;;;18.53;43.13;95507.59;10485519;28;1788;-77
2022/04/13 10:24:09;;;;;;;;;;;19.40;99.40;;;18.79;42.80;95509.34;10479969;28;1840;-76
2022/04/13 10:29:11;;;;;;;;;;;19.50;99.20;;;19.17;42.24;95498.28;10476156;28;1914;-77
2022/04/13 10:34:14;;;;;;;;;;;19.60;99.30;;;19.13;42.88;95497.34;10474267;28;1820;-77
2022/04/13 10:39:18;;;;;;;;;;;19.80;99.60;;;19.53;41.23;95494.06;10473569;28;1788;-79
2022/04/13 10:44:21;;;;;;;;;;;20.00;98.50;;;18.76;41.59;95491.75;10476685;28;1843;-76
2022/04/13 10:49:23;;;;;;;;;;;20.00;96.70;;;18.53;42.32;95485.00;10472715;28;1969;-77
2022/04/13 10:54:27;;;;;;;;;;;19.70;97.10;;;18.94;41.13;95483.44;10485803;28;1934;-78
2022/04/13 10:59:32;;;;;;;;;;;19.80;96.70;;;18.52;42.29;95483.44;10479992;28;1809;-76
2022/04/13 11:04:36;;;;;;;;;;;19.70;97.10;;;19.01;42.27;95483.69;10480676;28;1832;-76
2022/04/13 11:09:39;;;;;;;;;;;19.80;97.80;;;19.51;40.87;95480.78;10488119;28;1987;-76
2022/04/13 11:14:41;;;;;;;;;;;20.00;97.10;;;18.85;41.27;95476.13;10485093;28;1915;-75
2022/04/13 11:19:45;;;;;;;;;;;20.00;95.90;;;19.02;41.31;95477.09;10470646;28;1837;-75
2022/04/13 11:24:49;;;;;;;;;;;19.90;96.50;;;19.06;41.20;95478.84;10474983;28;1843;-77
2022/04/13 11:29:52;;;;;;;;;;;20.00;96.40;;;18.63;42.61;95473.72;10478715;28;2007;-76
2022/04/13 11:34:55;;;;;;;;;;;19.80;96.80;;;18.87;42.14;95473.06;10472822;28;1825;-76
2022/04/13 11:39:59;;;;;;;;;;;19.80;96.80;;;19.07;41.84;95476.91;10482407;28;1848;-77
2022/04/13 11:45:02;;;;;;;;;;;19.80;96.70;;;18.81;42.69;95468.97;10480350;28;1856;-76
2022/04/13 11:50:06;;;;;;;;;;;19.70;97.20;;;19.30;43.01;95474.59;10480039;28;2253;-77
2022/04/13 11:55:09;;;;;;;;;;;19.90;98.50;;;19.41;42.17;95468.41;10479184;28;1920;-75
2022/04/13 12:00:12;;;;;;;;;;;20.20;97.50;;;19.56;41.02;95471.59;10475427;28;1800;-78
2022/04/13 12:05:16;;;;;;;;;;;20.30;96.40;;;19.60;41.19;95467.91;10488304;28;1912;-76
2022/04/13 12:10:19;;;;;;;;;;;20.40;96.40;;;19.36;41.74;95465.88;10471461;28;1988;-76
2022/04/13 12:15:23;;;;;;;;;;;20.30;96.20;;;19.47;39.67;95463.53;10468672;28;1957;-76
2022/04/13 12:20:27;;;;;;;;;;;20.50;94.50;;;19.48;39.58;95461.59;10480938;28;1805;-75
2022/04/13 12:25:30;;;;;;;;;;;20.40;93.90;;;19.70;39.09;95463.94;10470287;28;1823;-78
2022/04/13 12:30:33;;;;;;;;;;;20.50;93.80;;;20.08;37.69;95454.63;10470871;28;1886;-77
2022/04/13 12:35:36;;;;;;;;;;;20.80;92.20;;;19.64;38.63;95459.81;10474767;28;1840;-77
2022/04/13 12:40:39;;;;;;;;;;;20.70;91.90;;;19.98;38.96;95445.78;10484772;28;1878;-75
2022/04/13 12:45:42;;;;;;;;;;;20.80;93.10;;;20.34;38.81;95440.59;10481408;28;1875;-77
2022/04/13 12:50:45;;;;;;;;;;;21.10;93.40;;;20.69;38.64;95436.25;10483350;28;1998;-76
2022/04/13 12:55:50;;;;;;;;;;;21.30;93.60;;;20.60;39.27;95426.59;10482091;28;1795;-76
2022/04/13 13:00:53;;;;;;;;;;;21.40;93.70;;;20.86;39.01;95428.88;10479763;28;1910;-77
2022/04/13 13:05:56;;;;;;;;;;;21.50;94.10;;;21.15;39.12;95414.88;10489872;28;2112;-75
2022/04/13 13:11:00;;;;;;;;;;;21.80;94.10;;;20.49;40.92;95413.44;10482684;28;1987;-76
2022/04/13 13:16:03;;;;;;;;;;;21.60;94.70;;;20.02;41.64;95421.31;10479207;28;2201;-77
2022/04/13 13:21:06;;;;;;;;;;;21.40;95.00;;;20.32;41.42;95426.50;10475728;28;1863;-76
2022/04/13 13:26:09;;;;;;;;;;;21.30;95.70;;;20.50;41.25;95415.00;10480225;28;1831;-78
2022/04/13 13:31:13;;;;;;;;;;;21.20;95.90;;;20.88;40.47;95421.16;10476155;28;1921;-76
2022/04/13 13:36:16;;;;;;;;;;;21.50;95.50;;;20.38;41.96;95431.41;10483313;28;1870;-77
2022/04/13 13:41:21;;;;;;;;;;;21.60;95.50;;;20.73;41.70;95415.28;10480015;28;1880;-76
2022/04/13 13:46:25;;;;;;;;;;;21.60;96.20;;;20.97;41.24;95411.66;10477848;28;1807;-77
2022/04/13 13:51:29;;;;;;;;;;;21.90;96.20;;;20.56;42.37;95406.59;10478721;28;1914;-77
2022/04/13 13:56:32;;;;;;;;;;;21.70;96.40;;;20.79;41.44;95413.09;10480808;28;1670;-75
2022/04/13 14:01:35;;;;;;;;;;;21.80;95.80;;;21.01;41.59;95415.28;10489408;28;1793;-77
2022/04/13 14:06:38;;;;;;;;;;;21.80;96.70;;;20.95;41.13;95400.28;10478926;28;1943;-76
2022/04/13 14:11:42;;;;;;;;;;;21.80;95.90;;;21.27;40.49;95400.34;10478710;28;1914;-76
2022/04/13 14:16:45;;;;;;;;;;;21.90;95.80;;;20.85;41.59;95395.31;10477128;28;1877;-76
2022/04/13 14:21:49;;;;;;;;;;;21.80;95.80;;;20.71;42.43;95394.91;10478104;28;1879;-76
2022/04/13 14:26:53;;;;;;;;;;;21.50;96.60;;;20.35;42.88;95388.38;10478995;28;1816;-76
2022/04/13 14:31:56;;;;;;;;;;;21.50;96.30;;;20.33;43.02;95381.69;10472951;28;1960;-76
2022/04/13 14:37:00;;;;;;;;;;;21.40;96.80;;;20.30;43.22;95380.47;10481424;28;2015;-76
2022/04/13 14:42:03;;;;;;;;;;;21.20;97.10;;;20.71;42.73;95384.00;10478244;28;1890;-77
2022/04/13 14:47:06;;;;;;;;;;;21.30;97.60;;;20.34;42.01;95381.34;10478216;28;1813;-77
2022/04/13 14:52:09;;;;;;;;;;;21.20;95.70;;;20.03;43.20;95392.09;10475539;28;1886;-75
2022/04/13 14:57:14;;;;;;;;;;;21.10;96.40;;;20.16;42.26;95382.75;10477546;28;1853;-78
2022/04/13 15:02:17;;;;;;;;;;;21.10;95.90;;;20.47;42.36;95374.75;10479642;28;2145;-76
2022/04/13 15:07:20;;;;;;;;;;;21.10;96.50;;;20.66;42.15;95387.75;10479446;28;1904;-77
2022/04/13 15:12:23;;;;;;;;;;;21.30;96.70;;;20.63;41.38;95382.22;10489978;28;1981;-77
2022/04/13 15:17:26;;;;;;;;;;;21.50;95.30;;;20.57;40.53;95378.94;10485236;28;1721;-77
2022/04/13 15:22:29;;;;;;;;;;;21.50;94.40;;;20.42;41.71;95382.34;10504274;28;2088;-76
2022/04/13 15:27:32;;;;;;;;;;;21.30;95.20;;;20.39;41.48;95389.31;10484481;28;1813;-76
2022/04/13 15:32:34;;;;;;;;;;;21.30;94.90;;;20.32;41.86;95393.75;10482609;28;1957;-76
2022/04/13 15:37:38;;;;;;;;;;;21.30;95.10;;;20.31;42.09;95386.72;10471248;28;1890;-76
2022/04/13 15:42:41;;;;;;;;;;;21.20;95.50;;;20.10;41.88;95381.41;10483778;28;2034;-75
2022/04/13 15:47:45;;;;;;;;;;;21.10;95.00;;;19.87;41.81;95384.63;10470545;28;1914;-76
2022/04/13 15:52:50;;;;;;;;;;;20.90;94.50;;;19.80;42.99;95380.88;10476227;28;1824;-76
2022/04/13 15:57:57;;;;;;;;;;;20.80;95.90;;;20.00;43.43;95392.78;10483655;28;2259;-76
2022/04/13 16:03:12;;;;;;;;;;;20.70;96.70;;;19.87;44.13;95387.34;10484477;28;1647;-75
2022/04/13 16:08:15;;;;;;;;;;;20.80;97.30;;;19.64;44.75;95388.94;10472479;28;1910;-77
2022/04/13 16:13:18;;;;;;;;;;;20.60;97.60;;;19.50;44.35;95381.06;10474564;28;1886;-76
2022/04/13 16:18:21;;;;;;;;;;;20.50;97.10;;;19.29;45.09;95389.34;10478410;28;1804;-76
2022/04/13 16:23:24;;;;;;;;;;;20.30;97.80;;;19.44;44.67;95385.16;10478558;28;1917;-76
2022/04/13 16:28:28;;;;;;;;;;;20.30;98.20;;;19.35;44.99;95390.72;10478094;28;1969;-76
2022/04/13 16:33:31;;;;;;;;;;;20.30;98.00;;;19.35;45.33;95396.16;10468463;28;1879;-75
2022/04/13 16:38:34;;;;;;;;;;;20.30;98.50;;;19.05;45.73;95397.44;10474847;28;1495;-77
2022/04/13 16:43:38;;;;;;;;;;;20.10;98.10;;;18.88;46.23;95410.09;10475388;28;1879;-77
2022/04/13 16:48:41;;;;;;;;;;;19.90;98.60;;;18.97;46.31;95417.41;10481966;28;2010;-75
2022/04/13 16:53:45;;;;;;;;;;;19.80;98.90;;;18.71;46.49;95421.16;10479809;28;1796;-76
2022/04/13 16:58:49;;;;;;;;;;;19.80;98.90;;;18.68;46.41;95419.09;10482457;28;1884;-77
2022/04/13 17:03:52;;;;;;;;;;;19.60;98.90;;;18.56;46.75;95419.00;10474094;28;1817;-75
2022/04/13 17:08:54;;;;;;;;;;;19.50;99.10;;;18.51;46.92;95416.47;10479586;28;1977;-78
2022/04/13 17:13:58;;;;;;;;;;;19.50;99.40;;;18.34;47.68;95412.78;10480779;28;1927;-76
2022/04/13 17:19:02;;;;;;;;;;;19.40;99.80;;;18.21;48.36;95413.06;10476712;28;1811;-77
2022/04/13 17:24:05;;;;;;;;;;;19.20;99.90;;;18.04;49.27;95409.31;10484236;28;1886;-77
2022/04/13 17:29:12;;;;;;;;;;;19.10;99.90;;;17.90;49.87;95406.03;10478763;28;1913;-77
2022/04/13 17:34:15;;;;;;;;;;;18.90;99.90;;;17.68;50.79;95417.94;10486138;28;1784;-76
2022/04/13 17:39:18;;;;;;;;;;;18.80;99.90;;;17.48;51.68;95411.31;10491693;28;1754;-76
2022/04/13 17:44:21;;;;;;;;;;;18.60;99.90;;;17.43;51.92;95413.41;10504027;28;1801;-76
2022/04/13 17:49:24;;;;;;;;;;;18.50;99.90;;;17.33;51.91;95421.94;10487066;28;1922;-76
2022/04/13 17:54:27;;;;;;;;;;;18.40;99.90;;;17.11;52.73;95426.44;10483915;28;1933;-76
2022/04/13 17:59:31;;;;;;;;;;;18.20;99.90;;;16.93;53.35;95431.16;10488509;28;1890;-75
2022/04/13 18:04:34;;;;;;;;;;;18.10;99.90;;;16.82;54.29;95434.50;10485801;28;1957;-77
2022/04/13 18:09:37;;;;;;;;;;;17.90;99.90;;;16.49;55.17;95443.13;10488572;28;1899;-75
2022/04/13 18:14:40;;;;;;;;;;;17.70;99.90;;;16.46;55.82;95446.47;10482461;28;1435;-78
2022/04/13 18:19:43;;;;;;;;;;;17.60;99.90;;;16.22;56.67;95446.91;10477503;28;1463;-76
2022/04/13 18:24:46;;;;;;;;;;;17.40;99.90;;;16.10;57.90;95458.41;10475702;28;1475;-77
2022/04/13 18:29:52;;;;;;;;;;;17.20;99.90;;;15.99;58.59;95448.16;10481064;28;1969;-77
2022/04/13 18:34:55;;;;;;;;;;;17.10;99.90;;;15.91;59.26;95455.16;10474195;28;1573;-77
2022/04/13 18:40:05;;;;;;;;;;;17.00;99.90;;;15.64;60.00;95465.09;10489516;28;1706;-84
2022/04/13 18:45:11;;;;;;;;;;;16.80;99.90;;;15.72;59.93;95470.88;10508154;28;1492;-85
2022/04/13 18:55:36;;;;;;;;;;;16.60;99.90;;;15.25;62.28;95475.88;10501386;28;1487;-81
2022/04/13 19:07:24;;;;;;;;;;;16.40;99.90;;;14.82;64.74;95493.44;10480019;28;1644;-73
2022/04/13 19:12:27;;;;;;;;;;;16.10;99.90;;;14.55;65.86;95497.03;10481162;28;1914;-72
2022/04/13 19:17:31;;;;;;;;;;;15.90;99.90;;;14.40;66.69;95494.66;10520353;22;1917;-70
2022/04/13 19:22:35;;;;;;;;;;;15.80;99.90;;;14.30;67.38;95505.66;10578730;28;1476;-71
2022/04/13 19:27:38;;;;;;;;;;;15.60;99.90;;;14.17;68.85;95501.09;10552373;28;1884;-70
2022/04/13 19:32:42;;;;;;;;;;;15.50;99.90;;;14.19;69.26;95498.91;10544624;28;2007;-70
2022/04/13 19:37:45;;;;;;;;;;;15.30;99.90;;;13.84;71.71;95501.22;10536316;28;1918;-70
2022/04/13 19:42:49;;;;;;;;;;;15.20;99.90;;;13.77;72.97;95503.53;10538998;28;1988;-71
2022/04/13 19:47:52;;;;;;;;;;;15.10;99.90;;;13.66;73.13;95496.72;10556734;28;1810;-70
2022/04/13 19:52:56;;;;;;;;;;;15.00;99.90;;;13.52;74.90;95500.19;10549083;28;2011;-69
2022/04/13 19:57:59;;;;;;;;;;;14.90;99.90;;;13.34;76.42;95495.69;10534740;28;2311;-71
2022/04/13 20:03:02;;;;;;;;;;;14.70;99.90;;;13.25;76.64;95503.66;10544409;28;1887;-69
2022/04/13 20:08:06;;;;;;;;;;;14.50;99.90;;;13.30;76.05;95504.69;10529649;28;1924;-71
2022/04/13 20:13:09;;;;;;;;;;;14.50;99.90;;;13.18;76.24;95503.22;10537602;28;1917;-71
2022/04/13 20:18:12;;;;;;;;;;;14.40;99.90;;;13.07;77.48;95504.50;10535228;28;2046;-70
2022/04/13 20:23:15;;;;;;;;;;;14.40;99.90;;;12.99;77.94;95505.97;10528812;28;2006;-71
2022/04/13 20:28:18;;;;;;;;;;;14.30;99.90;;;12.92;77.91;95510.94;10512027;28;1869;-69
2022/04/13 20:33:22;;;;;;;;;;;14.20;99.90;;;12.82;78.29;95510.28;10510655;28;2140;-70
2022/04/13 20:38:25;;;;;;;;;;;14.10;99.90;;;12.73;76.93;95507.47;10530633;28;1980;-71
2022/04/13 20:43:29;;;;;;;;;;;14.00;99.90;;;12.72;77.27;95505.84;10531455;28;1982;-70
2022/04/13 20:48:32;;;;;;;;;;;13.90;99.90;;;12.68;77.26;95504.84;10535235;28;1855;-69
2022/04/13 20:53:35;;;;;;;;;;;13.90;99.90;;;12.56;76.97;95499.91;10531183;28;1969;-70
2022/04/13 20:58:37;;;;;;;;;;;13.80;99.90;;;12.45;78.10;95501.94;10526215;28;1757;-71
2022/04/13 21:03:41;;;;;;;;;;;13.70;99.90;;;12.43;78.45;95498.72;10525245;28;1844;-70
2022/04/13 21:08:44;;;;;;;;;;;13.60;99.90;;;12.45;79.59;95507.31;10531313;28;1787;-71
2022/04/13 21:13:47;;;;;;;;;;;13.70;99.90;;;12.36;81.18;95503.69;10528429;28;1921;-69
2022/04/13 21:18:51;;;;;;;;;;;13.60;99.90;;;12.45;80.23;95501.94;10537749;28;1963;-70
2022/04/13 21:23:55;;;;;;;;;;;13.60;99.90;;;12.30;80.65;95504.06;10546700;27;1839;-70
2022/04/13 21:28:59;;;;;;;;;;;13.60;99.90;;;12.15;80.91;95502.34;10539779;28;1997;-70
2022/04/13 21:34:07;;;;;;;;;;;13.40;99.90;;;12.04;81.96;95496.31;10531588;28;1985;-69
2022/04/13 21:39:11;;;;;;;;;;;13.30;99.90;;;11.95;82.07;95491.84;10545058;28;1892;-70
2022/04/13 21:44:14;;;;;;;;;;;13.20;99.90;;;11.80;82.77;95499.00;10544133;28;2070;-70
2022/04/13 21:49:18;;;;;;;;;;;13.10;99.90;;;11.79;83.11;95494.69;10546791;28;1914;-71
2022/04/13 21:54:20;;;;;;;;;;;13.00;99.90;;;11.78;83.02;95493.09;10540542;28;1947;-70
2022/04/13 21:59:23;;;;;;;;;;;13.00;99.90;;;11.75;83.15;95490.16;10534731;28;2087;-70
2022/04/13 22:04:26;;;;;;;;;;;13.00;99.90;;;11.62;83.48;95489.78;10543353;28;2020;-71
2022/04/13 22:09:30;;;;;;;;;;;12.90;99.90;;;11.62;82.94;95497.03;10543892;28;1988;-71
2022/04/13 22:14:33;;;;;;;;;;;12.80;99.90;;;11.61;84.62;95508.91;10541593;28;1855;-70
2022/04/13 22:19:37;;;;;;;;;;;12.90;99.90;;;11.52;86.14;95499.88;10535827;28;1862;-70
2022/04/13 22:24:40;;;;;;;;;;;12.80;99.90;;;11.25;87.41;95492.31;10551110;27;1852;-70
2022/04/13 22:29:48;;;;;;;;;;;12.70;99.90;;;11.12;87.92;95499.16;10536907;28;1928;-71
2022/04/13 22:34:50;;;;;;;;;;;12.40;99.90;;;10.99;89.36;95497.13;10536198;28;1805;-71
2022/04/13 22:39:53;;;;;;;;;;;12.30;99.90;;;10.92;90.62;95508.22;10533661;28;1978;-71
2022/04/13 22:44:56;;;;;;;;;;;12.20;99.90;;;10.88;91.30;95511.75;10537941;28;1862;-70
2022/04/13 22:50:00;;;;;;;;;;;12.20;99.90;;;10.74;92.08;95507.00;10538219;28;1906;-70
2022/04/13 22:55:03;;;;;;;;;;;12.10;99.90;;;10.68;92.23;95518.88;10539985;28;2043;-70
2022/04/13 23:00:06;;;;;;;;;;;12.00;99.90;;;10.66;93.50;95521.06;10533441;28;1802;-71
2022/04/13 23:05:08;;;;;;;;;;;11.90;99.90;;;10.62;94.02;95528.06;10538391;28;1842;-70
2022/04/13 23:10:11;;;;;;;;;;;11.90;99.90;;;10.58;93.98;95520.88;10529649;28;1959;-70
2022/04/13 23:15:15;;;;;;;;;;;11.80;99.90;;;10.47;94.55;95517.44;10538049;28;1808;-70
2022/04/13 23:20:18;;;;;;;;;;;11.70;99.90;;;10.39;94.77;95520.72;10526669;28;1861;-70
2022/04/13 23:25:21;;;;;;;;;;;11.70;99.90;;;10.31;95.37;95522.13;10533711;28;1751;-71
2022/04/13 23:30:24;;;;;;;;;;;11.60;99.90;;;10.22;96.75;95521.03;10534526;28;1989;-70
2022/04/13 23:35:26;;;;;;;;;;;11.50;99.90;;;10.17;96.36;95521.88;10543207;27;2059;-70
2022/04/13 23:40:29;;;;;;;;;;;11.40;99.90;;;10.10;97.42;95524.06;10531879;28;2084;-71